Time;durP1;ratioP1;P1;durP2;ratioP2;P2;SDS_P1;SDS_P2;PMS_P1;PMS_P2;Temp;Humidity;BMP_temperature;BMP_pressure;BME280_temperature;BME280_humidity;BME280_pressure;Samples;Min_cycle;Max_cycle;Signal;HPM_P1;HPM_P2
2022/01/24 00:00:52;;;;;;;29.55;17.95;;;4.80;99.90;;;;;;4291767;28;10000264;-71
2022/01/24 00:03:17;;;;;;;29.38;17.58;;;4.80;99.90;;;;;;4980983;28;20487;-71
2022/01/24 00:05:43;;;;;;;26.33;17.70;;;4.80;99.90;;;;;;4982440;28;20114;-71
2022/01/24 00:08:09;;;;;;;27.08;17.27;;;4.80;99.90;;;;;;4971675;28;20035;-71
2022/01/24 00:10:37;;;;;;;29.75;17.85;;;4.80;99.90;;;;;;4980658;28;20030;-71
2022/01/24 00:16:00;;;;;;;30.02;18.05;;;4.80;99.90;;;;;;4981265;28;20061;-71
2022/01/24 00:26:41;;;;;;;26.98;17.25;;;4.80;99.90;;;;;;4984281;28;20030;-71
2022/01/24 00:26:46;;;;;;;41.95;22.33;;;4.80;99.90;;;;;;4980926;28;20088;-71
2022/01/24 00:29:23;;;;;;;36.05;19.98;;;4.70;99.90;;;;;;4975435;28;20043;-72
2022/01/24 00:31:49;;;;;;;28.98;17.70;;;4.70;99.90;;;;;;4978074;28;20042;-71
2022/01/24 00:34:15;;;;;;;26.05;16.00;;;4.70;99.90;;;;;;4976363;28;20241;-71
2022/01/24 00:36:42;;;;;;;28.27;17.60;;;4.70;99.90;;;;;;4978968;28;20096;-71
2022/01/24 00:39:08;;;;;;;29.73;17.77;;;4.70;99.90;;;;;;4984169;28;20027;-71
2022/01/24 00:41:46;;;;;;;28.17;16.15;;;4.80;99.90;;;;;;4982602;28;20057;-71
2022/01/24 00:46:53;;;;;;;24.38;15.30;;;4.70;99.90;;;;;;4978303;28;20027;-71
2022/01/24 00:49:44;;;;;;;26.00;16.33;;;4.70;99.90;;;;;;4984762;28;20049;-71
2022/01/24 00:54:52;;;;;;;23.50;15.68;;;4.70;99.90;;;;;;4985083;28;20089;-71
2022/01/24 00:57:19;;;;;;;29.30;17.13;;;4.70;99.90;;;;;;4980577;28;20085;-71
2022/01/24 00:59:45;;;;;;;24.80;15.98;;;4.70;99.90;;;;;;4978320;28;20042;-71
2022/01/24 01:02:11;;;;;;;26.27;15.93;;;4.70;99.90;;;;;;4980524;28;20022;-71
2022/01/24 01:04:57;;;;;;;23.50;15.30;;;4.70;99.90;;;;;;4986085;28;20521;-71
2022/01/24 01:07:38;;;;;;;25.48;15.25;;;4.60;99.90;;;;;;4978651;28;20042;-71
2022/01/24 01:18:19;;;;;;;23.42;13.68;;;4.60;99.90;;;;;;4971613;28;21136;-71
2022/01/24 01:23:30;;;;;;;20.55;12.82;;;4.60;99.90;;;;;;4982847;28;20026;-70
2022/01/24 01:25:57;;;;;;;24.95;13.20;;;4.60;99.90;;;;;;4980140;28;20042;-70
2022/01/24 01:28:24;;;;;;;19.33;12.88;;;4.70;99.90;;;;;;4980835;28;20486;-70
2022/01/24 01:30:53;;;;;;;20.10;13.18;;;4.70;99.90;;;;;;4977411;28;20038;-71
2022/01/24 01:55:36;;;;;;;21.13;12.55;;;4.70;99.90;;;;;;4979557;28;20030;-71
2022/01/24 01:58:07;;;;;;;19.48;12.45;;;4.70;99.90;;;;;;4982945;28;20640;-71
2022/01/24 02:00:34;;;;;;;20.35;12.48;;;4.70;99.90;;;;;;4985424;28;20054;-71
2022/01/24 02:03:00;;;;;;;21.45;13.20;;;4.70;99.90;;;;;;4978723;28;20022;-71
2022/01/24 02:05:26;;;;;;;24.35;14.30;;;4.60;99.90;;;;;;4985039;28;20014;-71
2022/01/24 02:07:52;;;;;;;21.08;13.50;;;4.70;99.90;;;;;;4984951;28;20030;-71
2022/01/24 02:10:22;;;;;;;25.23;14.23;;;4.60;99.90;;;;;;4985815;28;20064;-71
2022/01/24 02:12:49;;;;;;;23.60;14.35;;;4.70;99.90;;;;;;4983818;28;20117;-71
2022/01/24 02:15:22;;;;;;;20.25;13.52;;;4.70;99.90;;;;;;4984106;28;20050;-71
2022/01/24 02:18:12;;;;;;;20.02;13.00;;;4.70;99.90;;;;;;4986728;28;20030;-71
2022/01/24 02:25:54;;;;;;;20.88;13.15;;;4.70;99.90;;;;;;4986744;28;20027;-71
2022/01/24 02:28:22;;;;;;;20.08;12.70;;;4.60;99.90;;;;;;4985739;28;20647;-71
2022/01/24 02:33:18;;;;;;;21.35;13.10;;;4.60;99.90;;;;;;4980940;28;20482;-71
2022/01/24 02:35:45;;;;;;;21.23;14.00;;;4.70;99.90;;;;;;4985015;28;20034;-71
2022/01/24 02:38:22;;;;;;;24.42;14.00;;;4.70;99.90;;;;;;4981281;28;20034;-71
2022/01/24 02:46:02;;;;;;;22.58;14.02;;;4.70;99.90;;;;;;4987042;28;20030;-71
2022/01/24 02:49:10;;;;;;;23.00;13.95;;;4.70;99.90;;;;;;4980822;28;20402;-71
2022/01/24 02:54:30;;;;;;;22.80;13.75;;;4.70;99.90;;;;;;4983323;28;20030;-71
2022/01/24 02:56:56;;;;;;;21.85;13.73;;;4.70;99.90;;;;;;4982444;28;20154;-71
2022/01/24 02:59:22;;;;;;;22.35;13.18;;;4.70;99.90;;;;;;4984400;28;20187;-70
2022/01/24 03:01:48;;;;;;;22.58;13.43;;;4.70;99.90;;;;;;4981097;28;20022;-71
2022/01/24 03:04:14;;;;;;;20.58;13.10;;;4.60;99.90;;;;;;4977911;28;20112;-71
2022/01/24 03:06:39;;;;;;;22.45;13.15;;;4.70;99.90;;;;;;4986856;28;20038;-71
2022/01/24 03:09:06;;;;;;;19.85;12.10;;;4.70;99.90;;;;;;4983684;28;20038;-70
2022/01/24 03:11:57;;;;;;;19.75;12.18;;;4.70;99.90;;;;;;4987492;28;20036;-71
2022/01/24 03:14:26;;;;;;;20.63;12.98;;;4.70;99.90;;;;;;4981631;28;20030;-71
2022/01/24 03:16:53;;;;;;;20.98;13.02;;;4.70;99.90;;;;;;4988007;28;20725;-71
2022/01/24 03:19:19;;;;;;;19.52;12.32;;;4.70;99.90;;;;;;4986711;28;20041;-70
2022/01/24 03:21:45;;;;;;;22.52;12.40;;;4.70;99.90;;;;;;4987789;28;20037;-71
2022/01/24 03:24:11;;;;;;;21.17;13.07;;;4.70;99.90;;;;;;4989120;28;20030;-71
2022/01/24 03:26:37;;;;;;;18.88;11.77;;;4.70;99.90;;;;;;4988377;28;20344;-71
2022/01/24 03:29:03;;;;;;;19.23;11.73;;;4.70;99.90;;;;;;4982294;28;20050;-71
2022/01/24 03:31:29;;;;;;;19.90;12.55;;;4.70;99.90;;;;;;4975267;28;20122;-71
2022/01/24 03:33:55;;;;;;;18.85;12.27;;;4.70;99.90;;;;;;4981861;28;20122;-71
2022/01/24 03:36:20;;;;;;;22.00;12.32;;;4.70;99.90;;;;;;4986190;28;20617;-71
2022/01/24 03:38:46;;;;;;;23.20;13.73;;;4.70;99.90;;;;;;4981530;28;20642;-71
2022/01/24 03:41:12;;;;;;;20.70;12.95;;;4.70;99.90;;;;;;4984704;28;20026;-71
2022/01/24 03:43:38;;;;;;;21.08;13.00;;;4.70;99.90;;;;;;4987456;28;20035;-71
2022/01/24 03:48:43;;;;;;;17.52;11.50;;;4.70;99.90;;;;;;4973670;28;20541;-70
2022/01/24 03:51:09;;;;;;;20.50;12.15;;;4.80;99.90;;;;;;4980103;28;20479;-70
2022/01/24 03:53:35;;;;;;;19.65;12.32;;;4.70;99.90;;;;;;4988160;28;20038;-70
2022/01/24 03:56:01;;;;;;;19.13;11.98;;;4.70;99.90;;;;;;4978897;28;20030;-70
2022/01/24 03:58:27;;;;;;;19.25;11.57;;;4.70;99.90;;;;;;4981828;28;20026;-70
2022/01/24 04:00:55;;;;;;;17.75;10.93;;;4.70;99.90;;;;;;4978201;28;20062;-70
2022/01/24 04:03:21;;;;;;;18.13;11.38;;;4.70;99.90;;;;;;4986853;28;20054;-70
2022/01/24 04:05:47;;;;;;;17.63;11.20;;;4.70;99.90;;;;;;4986077;28;20601;-71
2022/01/24 04:08:12;;;;;;;16.40;10.60;;;4.70;99.90;;;;;;4984811;28;20384;-71
2022/01/24 04:10:44;;;;;;;17.25;10.75;;;4.70;99.90;;;;;;4980341;28;20556;-70
2022/01/24 04:13:24;;;;;;;17.48;11.20;;;4.70;99.90;;;;;;4985025;28;20041;-70
2022/01/24 04:21:21;;;;;;;20.50;12.82;;;4.70;99.90;;;;;;4982606;28;20546;-71
2022/01/24 04:23:54;;;;;;;20.25;13.13;;;4.70;99.90;;;;;;4970420;28;20094;-71
2022/01/24 04:26:19;;;;;;;20.88;13.82;;;4.70;99.90;;;;;;4980304;28;20113;-70
2022/01/24 04:28:45;;;;;;;21.38;13.55;;;4.70;99.90;;;;;;4984676;28;20466;-71
2022/01/24 04:31:11;;;;;;;21.55;13.07;;;4.70;99.90;;;;;;4984682;28;20022;-71
2022/01/24 04:33:37;;;;;;;20.60;12.88;;;4.70;99.90;;;;;;4986193;28;20042;-71
2022/01/24 04:36:03;;;;;;;20.10;12.75;;;4.70;99.90;;;;;;4981508;28;20031;-71
2022/01/24 04:38:28;;;;;;;16.90;10.50;;;4.70;99.90;;;;;;4987412;28;20037;-71
2022/01/24 04:41:01;;;;;;;19.30;11.63;;;4.70;99.90;;;;;;4976776;28;20117;-71
2022/01/24 04:51:13;;;;;;;24.88;16.23;;;4.80;99.90;;;;;;4978565;28;22189;-71
2022/01/24 04:56:04;;;;;;;23.48;14.63;;;4.90;99.90;;;;;;4981647;28;20031;-71
2022/01/24 04:58:30;;;;;;;23.33;14.38;;;4.80;99.90;;;;;;4976420;28;20104;-71
2022/01/24 05:00:56;;;;;;;21.33;13.40;;;4.80;99.90;;;;;;4982269;28;20026;-71
2022/01/24 05:03:21;;;;;;;20.65;12.88;;;4.80;99.90;;;;;;4982777;28;20649;-71
2022/01/24 05:05:48;;;;;;;19.17;12.00;;;4.80;99.90;;;;;;4980027;28;20038;-70
2022/01/24 05:08:15;;;;;;;19.17;12.07;;;4.80;99.90;;;;;;4978170;28;20031;-70
2022/01/24 05:10:54;;;;;;;17.67;11.38;;;4.80;99.90;;;;;;4981808;28;20509;-70
2022/01/24 05:24:13;;;;;;;18.38;11.88;;;4.70;99.90;;;;;;4985344;28;20435;-71
2022/01/24 05:26:39;;;;;;;21.60;12.60;;;4.80;99.90;;;;;;4980420;28;20047;-71
2022/01/24 05:29:04;;;;;;;19.88;12.70;;;4.80;99.90;;;;;;4980401;28;20046;-71
2022/01/24 05:31:30;;;;;;;18.67;12.20;;;4.80;99.90;;;;;;4974951;28;20037;-70
2022/01/24 05:33:55;;;;;;;20.08;12.10;;;4.80;99.90;;;;;;4978015;28;20029;-71
2022/01/24 05:36:21;;;;;;;18.80;11.32;;;4.80;99.90;;;;;;4980875;28;20445;-70
2022/01/24 05:38:46;;;;;;;18.67;11.93;;;4.80;99.90;;;;;;4981681;28;20030;-70
2022/01/24 05:41:12;;;;;;;18.73;12.10;;;4.70;99.90;;;;;;4975553;28;20031;-70
2022/01/24 05:43:38;;;;;;;21.17;13.73;;;4.70;99.90;;;;;;4976866;28;20472;-71
2022/01/24 05:46:03;;;;;;;20.80;13.05;;;4.70;99.90;;;;;;4977636;28;20053;-70
2022/01/24 05:48:29;;;;;;;22.65;13.90;;;4.70;99.90;;;;;;4969204;28;20697;-71
2022/01/24 05:50:54;;;;;;;23.67;15.45;;;4.70;99.90;;;;;;4979318;28;20022;-71
2022/01/24 05:53:20;;;;;;;23.25;15.30;;;4.70;99.90;;;;;;4987270;28;20604;-71
2022/01/24 05:55:46;;;;;;;27.90;17.90;;;4.70;99.90;;;;;;4979236;28;20031;-71
2022/01/24 05:58:11;;;;;;;25.10;16.98;;;4.70;99.90;;;;;;4625218;28;10000303;-70
2022/01/24 06:00:37;;;;;;;27.25;17.52;;;4.70;99.90;;;;;;4967343;28;20092;-71
2022/01/24 06:03:03;;;;;;;25.02;16.25;;;4.70;99.90;;;;;;4972312;28;20368;-71
2022/01/24 06:05:28;;;;;;;22.05;14.50;;;4.70;99.90;;;;;;4976312;28;20085;-71
2022/01/24 06:07:55;;;;;;;23.17;14.10;;;4.70;99.90;;;;;;4974758;28;20034;-70
2022/01/24 06:10:20;;;;;;;19.20;12.90;;;4.70;99.90;;;;;;4972664;28;20038;-70
2022/01/24 06:12:46;;;;;;;20.35;12.48;;;4.70;99.90;;;;;;4977549;28;20041;-71
2022/01/24 06:15:12;;;;;;;17.00;11.60;;;4.70;99.90;;;;;;4971299;28;20026;-70
2022/01/24 06:17:38;;;;;;;15.98;10.23;;;4.70;99.90;;;;;;4973927;28;20144;-70
2022/01/24 06:20:06;;;;;;;15.07;9.93;;;4.70;99.90;;;;;;4978891;28;20042;-70
2022/01/24 06:22:32;;;;;;;14.73;9.55;;;4.70;99.90;;;;;;4975693;28;20066;-70
2022/01/24 06:24:57;;;;;;;13.25;8.50;;;4.70;99.90;;;;;;4984699;28;20486;-70
2022/01/24 06:27:23;;;;;;;11.85;8.25;;;4.70;99.90;;;;;;4971801;28;20038;-70
2022/01/24 06:29:49;;;;;;;8.70;6.35;;;4.80;99.90;;;;;;4979102;28;20058;-70
2022/01/24 06:32:15;;;;;;;14.75;8.55;;;4.70;99.90;;;;;;4979324;28;20033;-70
2022/01/24 06:34:41;;;;;;;3.13;2.60;;;4.80;99.90;;;;;;4981305;28;20038;-70
2022/01/24 06:37:07;;;;;;;3.38;2.33;;;4.80;99.90;;;;;;4981169;28;20030;-70
2022/01/24 06:39:33;;;;;;;2.65;1.90;;;4.80;99.90;;;;;;4977303;28;20066;-70
2022/01/24 06:42:12;;;;;;;1.80;1.70;;;4.80;99.90;;;;;;4980789;28;20027;-70
2022/01/24 06:44:38;;;;;;;4.38;3.42;;;4.80;99.90;;;;;;4977378;28;20303;-70
2022/01/24 06:47:04;;;;;;;3.28;2.75;;;4.80;99.90;;;;;;4982250;28;20031;-70
2022/01/24 06:49:31;;;;;;;2.50;2.30;;;4.80;99.90;;;;;;4982510;28;20096;-70
2022/01/24 06:51:56;;;;;;;3.05;2.70;;;4.80;99.90;;;;;;4976291;28;20038;-70
2022/01/24 06:54:22;;;;;;;3.17;2.40;;;4.80;99.90;;;;;;4985763;28;20035;-70
2022/01/24 06:56:48;;;;;;;2.33;2.13;;;4.80;99.90;;;;;;4986748;28;20022;-71
2022/01/24 06:59:14;;;;;;;3.28;2.72;;;4.80;99.90;;;;;;4983165;28;20034;-70
2022/01/24 07:01:40;;;;;;;2.72;2.40;;;4.70;99.90;;;;;;4978718;28;20566;-71
2022/01/24 07:04:06;;;;;;;3.00;2.70;;;4.70;99.90;;;;;;4985962;28;20117;-70
2022/01/24 07:06:31;;;;;;;3.60;2.70;;;4.70;99.90;;;;;;4984922;28;20121;-70
2022/01/24 07:08:57;;;;;;;3.10;2.80;;;4.70;99.90;;;;;;4988108;28;20076;-70
2022/01/24 07:11:22;;;;;;;2.78;2.50;;;4.70;99.90;;;;;;4983301;28;20582;-70
2022/01/24 07:13:50;;;;;;;2.35;2.15;;;4.70;99.90;;;;;;4982127;28;20023;-70
2022/01/24 07:16:16;;;;;;;2.30;2.10;;;4.70;99.90;;;;;;4978898;28;20098;-70
2022/01/24 07:18:58;;;;;;;2.60;2.28;;;4.70;99.90;;;;;;4974739;28;20026;-70
2022/01/24 07:21:24;;;;;;;2.95;2.65;;;4.70;99.90;;;;;;4974421;28;20022;-70
2022/01/24 07:23:50;;;;;;;2.90;2.60;;;4.70;99.90;;;;;;4978222;28;20077;-70
2022/01/24 07:26:15;;;;;;;3.95;3.38;;;4.70;99.90;;;;;;4981314;28;20435;-70
2022/01/24 07:28:41;;;;;;;4.20;3.80;;;4.70;99.90;;;;;;4980145;28;20109;-71
2022/01/24 07:31:07;;;;;;;3.70;3.35;;;4.70;99.90;;;;;;4977931;28;20163;-70
2022/01/24 07:33:32;;;;;;;3.38;3.08;;;4.70;99.90;;;;;;4979111;28;20548;-70
2022/01/24 07:35:58;;;;;;;3.20;2.90;;;4.80;99.90;;;;;;4976006;28;20126;-70
2022/01/24 07:38:24;;;;;;;4.43;4.03;;;4.80;99.90;;;;;;4977640;28;20116;-70
2022/01/24 07:40:53;;;;;;;6.93;4.07;;;4.80;99.90;;;;;;4976787;28;20526;-70
2022/01/24 07:43:19;;;;;;;4.10;3.55;;;4.80;99.90;;;;;;4986012;28;23458;-70
2022/01/24 07:45:46;;;;;;;4.10;3.40;;;4.80;99.90;;;;;;4978470;28;20029;-70
2022/01/24 07:48:14;;;;;;;4.70;4.20;;;4.80;99.90;;;;;;4978476;28;20135;-69
2022/01/24 07:50:43;;;;;;;4.68;4.20;;;4.70;99.90;;;;;;4978121;28;20031;-70
2022/01/24 07:53:09;;;;;;;4.70;4.20;;;4.70;99.90;;;;;;4984483;28;20026;-70
2022/01/24 07:55:36;;;;;;;4.15;3.75;;;4.70;99.90;;;;;;4986509;28;20049;-70
2022/01/24 07:58:02;;;;;;;4.93;4.20;;;4.70;99.90;;;;;;4976188;28;20388;-70
2022/01/24 08:00:27;;;;;;;7.35;4.40;;;4.70;99.90;;;;;;4976276;28;20089;-72
2022/01/24 08:03:30;;;;;;;4.65;3.92;;;4.70;99.90;;;;;;4982084;28;20034;-78
2022/01/24 08:05:56;;;;;;;3.58;3.25;;;4.70;99.90;;;;;;4979007;28;20019;-75
2022/01/24 08:08:21;;;;;;;3.90;3.50;;;4.70;99.90;;;;;;4982507;28;20503;-75
2022/01/24 08:10:47;;;;;;;5.85;5.35;;;4.70;99.90;;;;;;4984646;28;20061;-75
2022/01/24 08:13:13;;;;;;;4.30;3.90;;;4.70;99.90;;;;;;4986197;28;20118;-75
2022/01/24 08:15:39;;;;;;;3.47;3.17;;;4.70;99.90;;;;;;4975440;28;20660;-77
2022/01/24 08:18:05;;;;;;;3.00;2.80;;;4.70;99.90;;;;;;4984488;28;20034;-76
2022/01/24 08:20:31;;;;;;;3.30;3.00;;;4.70;99.90;;;;;;4980270;28;20026;-75
2022/01/24 08:22:57;;;;;;;3.15;2.85;;;4.70;99.90;;;;;;4986167;28;20565;-75
2022/01/24 08:25:22;;;;;;;9.52;6.22;;;4.70;99.90;;;;;;4986859;28;20045;-77
2022/01/24 08:27:48;;;;;;;10.35;7.30;;;4.70;99.90;;;;;;4980807;28;20493;-75
2022/01/24 08:30:17;;;;;;;4.63;4.22;;;4.70;99.90;;;;;;4987377;28;20570;-77
2022/01/24 08:32:43;;;;;;;3.80;3.50;;;4.70;99.90;;;;;;4983398;28;20093;-77
2022/01/24 08:35:10;;;;;;;3.30;3.00;;;4.70;99.90;;;;;;4979136;28;20041;-77
2022/01/24 08:37:37;;;;;;;3.15;2.85;;;4.70;99.90;;;;;;4971810;28;20045;-76
2022/01/24 08:40:05;;;;;;;3.67;3.22;;;4.70;99.90;;;;;;4984468;28;20033;-75
2022/01/24 08:42:45;;;;;;;4.00;3.60;;;4.70;99.90;;;;;;4973953;28;20386;-74
2022/01/24 08:47:56;;;;;;;3.85;3.45;;;4.70;99.90;;;;;;4982242;28;20096;-76
2022/01/24 08:50:26;;;;;;;4.00;3.70;;;4.70;99.90;;;;;;4974355;28;20034;-73
2022/01/24 08:52:53;;;;;;;3.60;3.30;;;4.70;99.90;;;;;;4977340;28;20571;-73
2022/01/24 08:55:18;;;;;;;9.68;7.97;;;4.70;99.90;;;;;;4976385;28;20069;-78
2022/01/24 08:57:44;;;;;;;3.50;3.20;;;4.70;99.90;;;;;;4980459;28;20483;-77
2022/01/24 09:00:10;;;;;;;8.32;7.30;;;4.80;99.90;;;;;;4987576;28;20113;-75
2022/01/24 09:02:36;;;;;;;14.10;10.43;;;4.80;99.90;;;;;;4977420;28;20022;-74
2022/01/24 09:05:02;;;;;;;5.80;5.28;;;4.80;99.90;;;;;;4982830;28;20052;-75
2022/01/24 09:07:30;;;;;;;9.82;8.82;;;4.80;99.90;;;;;;4987265;28;20372;-76
2022/01/24 09:09:57;;;;;;;8.65;7.85;;;4.80;99.90;;;;;;4980147;28;20326;-74
2022/01/24 09:12:23;;;;;;;5.28;4.70;;;4.80;99.90;;;;;;4980110;28;20026;-74
2022/01/24 09:14:50;;;;;;;7.20;4.88;;;4.80;99.90;;;;;;4984295;28;20068;-73
2022/01/24 09:17:16;;;;;;;5.68;5.07;;;4.80;99.90;;;;;;4979345;28;20041;-74
2022/01/24 09:19:42;;;;;;;4.20;3.80;;;4.80;99.90;;;;;;4984423;28;20026;-74
2022/01/24 09:22:08;;;;;;;4.90;4.40;;;4.80;99.90;;;;;;4984911;28;20045;-76
2022/01/24 09:24:34;;;;;;;3.83;3.42;;;4.80;99.90;;;;;;4982735;28;20045;-74
2022/01/24 09:27:01;;;;;;;3.40;3.10;;;4.70;99.90;;;;;;4983991;28;20054;-75
2022/01/24 09:29:27;;;;;;;3.78;3.38;;;4.70;99.90;;;;;;4984108;28;20056;-74
2022/01/24 09:31:52;;;;;;;5.28;4.22;;;4.80;99.90;;;;;;4977966;28;20034;-75
2022/01/24 09:34:20;;;;;;;5.15;4.32;;;4.80;99.90;;;;;;4978581;28;20033;-75
2022/01/24 09:36:50;;;;;;;3.70;3.40;;;4.80;99.90;;;;;;4968397;28;20043;-75
2022/01/24 09:39:17;;;;;;;3.58;3.20;;;4.80;99.90;;;;;;4984635;28;20034;-75
2022/01/24 09:41:44;;;;;;;4.38;3.75;;;4.80;99.90;;;;;;4984744;28;20081;-75
2022/01/24 09:44:10;;;;;;;4.10;3.70;;;4.80;99.90;;;;;;4980078;28;20108;-76
2022/01/24 09:46:37;;;;;;;4.55;3.95;;;4.80;99.90;;;;;;4972182;28;20106;-75
2022/01/24 09:49:04;;;;;;;4.00;3.58;;;4.80;99.90;;;;;;4987825;28;20026;-75
2022/01/24 09:51:31;;;;;;;3.72;3.40;;;4.90;99.90;;;;;;4983584;28;20047;-75
2022/01/24 09:53:58;;;;;;;3.85;3.22;;;4.90;99.90;;;;;;4984633;28;20758;-75
2022/01/24 09:56:23;;;;;;;3.47;3.17;;;4.90;99.90;;;;;;4987004;28;20034;-75
2022/01/24 09:58:50;;;;;;;5.20;3.60;;;4.90;99.90;;;;;;4977733;28;20034;-74
2022/01/24 10:01:18;;;;;;;3.95;3.40;;;4.90;99.90;;;;;;4980352;28;20042;-74
2022/01/24 10:04:05;;;;;;;5.25;3.95;;;4.90;99.90;;;;;;4978188;28;20490;-75
2022/01/24 10:07:02;;;;;;;4.80;3.83;;;5.10;99.90;;;;;;4984308;28;20486;-76
2022/01/24 10:09:33;;;;;;;6.20;5.35;;;5.00;99.90;;;;;;4984307;28;20081;-75
2022/01/24 10:17:34;;;;;;;4.38;3.88;;;5.00;99.90;;;;;;4973408;28;20041;-76
2022/01/24 10:20:38;;;;;;;5.03;4.53;;;5.00;99.90;;;;;;4979369;28;20123;-76
2022/01/24 10:23:32;;;;;;;10.80;7.25;;;5.00;99.90;;;;;;4986029;28;20035;-76
2022/01/24 10:26:03;;;;;;;8.85;6.88;;;5.00;99.90;;;;;;4971301;28;20683;-75
2022/01/24 10:28:33;;;;;;;8.80;6.90;;;5.00;99.90;;;;;;4981874;28;20030;-76
2022/01/24 10:31:21;;;;;;;9.00;7.10;;;4.90;99.90;;;;;;4985730;28;20053;-76
2022/01/24 10:33:53;;;;;;;8.75;6.85;;;5.00;99.90;;;;;;4979245;28;20578;-75
2022/01/24 10:36:34;;;;;;;8.13;6.80;;;5.00;99.90;;;;;;4974056;28;20039;-75
2022/01/24 10:39:21;;;;;;;12.85;9.90;;;5.00;99.90;;;;;;4983289;28;20077;-75
2022/01/24 10:42:22;;;;;;;6.82;6.00;;;5.00;99.90;;;;;;4985308;28;20546;-75
2022/01/24 10:44:48;;;;;;;13.40;9.63;;;5.00;99.90;;;;;;4978973;28;20084;-75
2022/01/24 10:47:18;;;;;;;11.57;9.48;;;5.00;99.90;;;;;;4984353;28;20026;-78
2022/01/24 10:49:45;;;;;;;13.85;11.02;;;5.10;99.90;;;;;;4982545;28;20042;-76
2022/01/24 10:52:14;;;;;;;10.93;9.65;;;5.10;99.90;;;;;;4984766;28;20050;-75
2022/01/24 10:54:40;;;;;;;12.10;9.20;;;5.10;99.90;;;;;;4982438;28;20034;-76
2022/01/24 10:57:06;;;;;;;9.52;7.30;;;5.10;99.90;;;;;;4980437;28;20039;-76
2022/01/24 10:59:34;;;;;;;10.73;7.20;;;5.10;99.90;;;;;;4988101;28;20045;-76
2022/01/24 11:02:03;;;;;;;7.47;4.78;;;5.20;99.90;;;;;;4979583;28;20406;-75
2022/01/24 11:04:30;;;;;;;5.07;4.28;;;5.10;99.90;;;;;;4986660;28;20081;-75
2022/01/24 11:06:58;;;;;;;5.63;4.35;;;5.20;99.90;;;;;;4986330;28;20232;-76
2022/01/24 11:09:27;;;;;;;3.60;3.30;;;5.10;99.90;;;;;;4980834;28;20065;-76
2022/01/24 11:11:59;;;;;;;5.55;4.20;;;5.10;99.90;;;;;;4984825;28;20506;-76
2022/01/24 11:14:26;;;;;;;5.93;5.03;;;5.10;99.90;;;;;;4988299;28;20034;-76
2022/01/24 11:16:54;;;;;;;5.10;3.90;;;5.10;99.90;;;;;;4986546;28;20085;-76
2022/01/24 11:19:29;;;;;;;4.50;4.10;;;5.10;99.90;;;;;;4984844;28;20038;-76
2022/01/24 11:21:58;;;;;;;4.85;4.35;;;5.10;99.90;;;;;;4986667;28;20069;-76
2022/01/24 11:24:39;;;;;;;4.68;4.20;;;5.00;99.90;;;;;;4987635;28;20387;-76
2022/01/24 11:27:07;;;;;;;5.00;4.50;;;5.00;99.90;;;;;;4986065;28;20065;-77
2022/01/24 11:29:34;;;;;;;5.75;3.60;;;5.00;99.90;;;;;;4976839;28;20062;-76
2022/01/24 11:32:18;;;;;;;10.23;3.75;;;5.00;99.90;;;;;;4982332;28;20031;-76
2022/01/24 11:34:52;;;;;;;4.82;3.55;;;5.10;99.90;;;;;;4988343;28;20046;-76
2022/01/24 11:37:39;;;;;;;4.03;3.60;;;5.00;99.90;;;;;;4977080;28;20669;-76
2022/01/24 11:40:08;;;;;;;5.30;4.80;;;5.10;99.90;;;;;;4983798;28;20129;-73
2022/01/24 11:42:35;;;;;;;5.57;4.35;;;5.10;99.90;;;;;;4980926;28;20114;-73
2022/01/24 11:45:10;;;;;;;3.85;3.45;;;5.10;99.90;;;;;;4984560;28;20409;-73
2022/01/24 11:47:35;;;;;;;4.28;3.72;;;5.10;99.90;;;;;;4982578;28;20471;-73
2022/01/24 11:50:24;;;;;;;6.32;4.38;;;5.10;99.90;;;;;;4972730;28;20122;-73
2022/01/24 11:52:51;;;;;;;6.53;5.85;;;5.10;99.90;;;;;;4980845;28;20027;-73
2022/01/24 11:55:34;;;;;;;5.22;4.72;;;5.10;99.90;;;;;;4970784;28;20623;-73
2022/01/24 11:58:04;;;;;;;5.55;5.05;;;5.10;99.90;;;;;;4973178;28;20027;-73
2022/01/24 12:00:36;;;;;;;5.30;4.80;;;5.10;99.90;;;;;;4984648;28;20080;-73
2022/01/24 12:03:23;;;;;;;4.20;3.80;;;5.10;99.90;;;;;;4986242;28;20532;-73
2022/01/24 12:05:53;;;;;;;5.07;4.57;;;5.10;99.90;;;;;;4971123;28;20077;-75
2022/01/24 12:08:43;;;;;;;5.03;4.53;;;5.10;99.90;;;;;;4978417;28;20019;-73
2022/01/24 12:11:13;;;;;;;4.78;4.28;;;5.00;99.90;;;;;;4984271;28;20483;-73
2022/01/24 12:13:46;;;;;;;5.90;4.90;;;4.90;99.90;;;;;;4978648;28;20093;-73
2022/01/24 12:16:14;;;;;;;6.68;5.25;;;5.00;99.90;;;;;;4988571;28;20038;-73
2022/01/24 12:18:40;;;;;;;7.78;4.70;;;4.90;99.90;;;;;;4975590;28;20073;-74
2022/01/24 12:21:36;;;;;;;5.50;4.60;;;4.90;99.90;;;;;;4975376;28;20129;-73
2022/01/24 12:24:05;;;;;;;5.65;4.70;;;4.90;99.90;;;;;;4973178;28;20042;-72
2022/01/24 12:26:40;;;;;;;8.40;6.40;;;5.00;99.90;;;;;;4284855;28;10001019;-73
2022/01/24 12:29:15;;;;;;;5.78;4.90;;;5.00;99.90;;;;;;4967033;28;20042;-74
2022/01/24 12:31:51;;;;;;;7.28;5.05;;;5.00;99.90;;;;;;4974601;28;20046;-73
2022/01/24 12:34:23;;;;;;;4.97;4.47;;;5.00;99.90;;;;;;4969140;28;20062;-73
2022/01/24 12:36:51;;;;;;;5.72;4.43;;;5.00;99.90;;;;;;4972345;28;20035;-73
2022/01/24 12:39:17;;;;;;;6.28;5.00;;;5.00;99.90;;;;;;4976951;28;20077;-73
2022/01/24 12:41:50;;;;;;;7.55;5.00;;;5.00;99.90;;;;;;4970834;28;20135;-72
2022/01/24 12:47:04;;;;;;;5.97;5.07;;;5.00;99.90;;;;;;4972187;28;20530;-73
2022/01/24 12:49:30;;;;;;;18.02;14.48;;;5.00;99.90;;;;;;4975431;28;20048;-73
2022/01/24 12:52:00;;;;;;;13.77;10.60;;;5.00;99.90;;;;;;4971586;28;20258;-72
2022/01/24 12:54:35;;;;;;;9.63;7.63;;;5.00;99.90;;;;;;4963106;28;20267;-73
2022/01/24 12:57:05;;;;;;;8.18;6.90;;;5.00;99.90;;;;;;4977344;28;20044;-71
2022/01/24 12:59:32;;;;;;;7.63;6.28;;;5.00;99.90;;;;;;4972946;28;20041;-73
2022/01/24 13:02:00;;;;;;;7.70;6.90;;;5.00;99.90;;;;;;4978867;28;20037;-72
2022/01/24 13:04:40;;;;;;;8.48;6.95;;;5.00;99.90;;;;;;4975558;28;20351;-72
2022/01/24 13:07:08;;;;;;;7.78;6.97;;;5.00;99.90;;;;;;4971474;28;20030;-72
2022/01/24 13:09:36;;;;;;;5.93;5.30;;;5.00;99.90;;;;;;4976292;28;20233;-73
2022/01/24 13:12:05;;;;;;;8.00;6.00;;;5.00;99.90;;;;;;4977112;28;20030;-74
2022/01/24 13:15:08;;;;;;;6.40;5.47;;;5.00;99.90;;;;;;4976465;28;20629;-73
2022/01/24 13:23:03;;;;;;;6.50;5.25;;;5.00;99.90;;;;;;4979115;28;20552;-74
2022/01/24 13:25:30;;;;;;;6.45;5.60;;;5.00;99.90;;;;;;4976990;28;20030;-74
2022/01/24 13:28:06;;;;;;;6.20;5.40;;;4.90;99.90;;;;;;4979964;28;20038;-74
2022/01/24 13:30:36;;;;;;;14.85;9.40;;;4.90;99.90;;;;;;4957902;28;20340;-74
2022/01/24 13:33:07;;;;;;;15.48;9.07;;;5.00;99.90;;;;;;4951506;28;20474;-74
2022/01/24 13:35:45;;;;;;;11.25;7.43;;;5.00;99.90;;;;;;4959392;28;20464;-74
2022/01/24 13:38:37;;;;;;;6.60;5.65;;;5.00;99.90;;;;;;4955894;28;20061;-74
2022/01/24 13:41:06;;;;;;;8.80;4.85;;;4.90;99.90;;;;;;4951155;28;20433;-74
2022/01/24 13:43:37;;;;;;;7.10;5.50;;;4.90;99.90;;;;;;4950225;28;20443;-74
2022/01/24 13:46:05;;;;;;;5.53;4.88;;;4.90;99.90;;;;;;4953755;28;20038;-73
2022/01/24 13:48:47;;;;;;;7.82;5.40;;;4.90;99.90;;;;;;4958129;28;20027;-73
2022/01/24 13:51:23;;;;;;;5.30;4.50;;;5.00;99.90;;;;;;4960544;28;20510;-72
2022/01/24 13:53:51;;;;;;;5.30;4.72;;;4.90;99.90;;;;;;4955134;28;20046;-72
2022/01/24 13:56:31;;;;;;;8.57;4.70;;;4.90;99.90;;;;;;4959870;28;20031;-73
2022/01/24 13:59:06;;;;;;;16.80;7.68;;;4.90;99.90;;;;;;4952100;28;20046;-73
2022/01/24 14:01:32;;;;;;;6.40;5.20;;;4.90;99.90;;;;;;4958823;28;20077;-74
2022/01/24 14:04:05;;;;;;;6.03;5.32;;;4.90;99.90;;;;;;4958794;28;20032;-73
2022/01/24 14:06:38;;;;;;;8.43;6.40;;;4.80;99.90;;;;;;4946318;28;20090;-74
2022/01/24 14:09:12;;;;;;;11.73;6.20;;;4.80;99.90;;;;;;4953355;28;20034;-74
2022/01/24 14:11:44;;;;;;;7.28;6.28;;;4.90;99.90;;;;;;4952283;28;20026;-73
2022/01/24 14:14:14;;;;;;;6.22;5.43;;;4.90;99.90;;;;;;4961281;28;20027;-74
2022/01/24 14:17:10;;;;;;;12.27;6.75;;;4.80;99.90;;;;;;4953130;28;20031;-74
2022/01/24 14:19:36;;;;;;;10.73;8.10;;;4.80;99.90;;;;;;4958064;28;20099;-73
2022/01/24 14:22:05;;;;;;;8.10;7.30;;;4.80;99.90;;;;;;4961770;28;20026;-74
2022/01/24 14:24:47;;;;;;;6.53;5.60;;;4.80;99.90;;;;;;4611567;28;9999605;-73
2022/01/24 14:27:34;;;;;;;7.07;6.15;;;4.80;99.90;;;;;;4956790;28;20023;-71
2022/01/24 14:30:12;;;;;;;7.07;6.35;;;4.70;99.90;;;;;;4967527;28;20568;-73
2022/01/24 14:32:45;;;;;;;8.63;5.68;;;4.80;99.90;;;;;;4978033;28;20039;-73
2022/01/24 14:35:12;;;;;;;7.80;6.22;;;4.80;99.90;;;;;;4980968;28;20124;-73
2022/01/24 14:37:55;;;;;;;7.45;6.53;;;4.70;99.90;;;;;;4982097;28;20045;-72
2022/01/24 14:40:52;;;;;;;8.20;6.60;;;4.70;99.90;;;;;;4970025;28;20039;-73
2022/01/24 14:46:13;;;;;;;10.88;9.23;;;4.70;99.90;;;;;;4977999;28;20514;-73
2022/01/24 14:48:48;;;;;;;11.27;9.05;;;4.70;99.90;;;;;;4973058;28;20045;-73
2022/01/24 14:51:17;;;;;;;8.95;7.68;;;4.70;99.90;;;;;;4973649;28;20406;-73
2022/01/24 14:53:42;;;;;;;9.73;6.55;;;4.70;99.90;;;;;;4978181;28;20026;-73